หน้าหลัก
METAR-TAF:

METAR-TAF

ท่าอากาศยาน :

บริสตอล, อังกฤษ

ละติจูด: 51-23N, ลองจิจูด: 002-43W, ความสูง: 189 ม.

การสังเกตสภาพอากาศปัจจุบัน

รายงานได้ทำขึ้นเมื่อ 36 นาทีที่แล้ว ณ เวลา 01:20 UTC
ลม 9 นอตจากเหนือ/ตะวันออกเฉียงเหนือ
อุณหภูมิ 11°C
ความชื้น 94%
ความกดอากาศ 1019 hPa
ทัศนวิสัย 10 กม. หรือมากกว่า
มีเมฆเป็นส่วนมากเว้นเป็นระยะที่ความสูง 3800 ฟุต

METAR: EGGD 190120Z AUTO 02009KT 9999 BKN038 11/10 Q1019

เวลา: 02:56 (01:56 UTC)

การพยากรณ์

รายงานได้ทำขึ้นเมื่อ 2 ชั่วโมงและ 59 นาทีที่แล้ว ณ เวลา 22:57 UTC
การพยากรณ์มีผลตั้งแต่วันที่ 19 ณ เวลา 00 UTC จนถึงวันที่ 19 ณ เวลา 24 UTC
ลม 10 นอตจากเหนือ/ตะวันออกเฉียงเหนือ
ทัศนวิสัย 10 กม. หรือมากกว่า
มีเมฆกระจายเป็นบางส่วนที่ความสูง 4000 ฟุต
ความน่าจะเป็น 40% :
ชั่วคราว
ตั้งแต่วันที่ 19 ณ เวลา 00 UTC จนถึงวันที่ 19 ณ เวลา 06 UTC
มีเมฆเป็นส่วนมากเว้นเป็นระยะที่ความสูง 1200 ฟุต
กำลังกลายเป็น
ตั้งแต่วันที่ 19 ณ เวลา 18 UTC จนถึงวันที่ 19 ณ เวลา 21 UTC
ลม 5 นอตจากตะวันออก

TAF: EGGD 182257Z 1900/1924 03010KT 9999 SCT040 PROB40 TEMPO 1900/1906 BKN012 BECMG 1918/1921 09005KT

สังเกตการณ์สภาพอากาศและพยากรณ์อากาศของสนามบินมากกว่า 4000 แห่ง (รายงาน METAR และ TAF).

สถานีที่ดูได้จะแสดงไว้ด้วยจุดสีเหลืองและสีแดงบนแผนที่.

เลื่อนเมาส์ไปเหนือจุดเพื่อดูชื่อสถานี.

แล้วคลิกเพื่อดูสังเกตการณ์และการพยากรณ์สภาพอากาศ.

ในการเปลี่ยนแผนที่: คลิกที่ปุ่มสีเขียวที่มีกากบาทสีดำเพื่อซูมเข้า; ที่ปุ่มสีเขียวที่มีขีดเพื่อซูมออก; หรือที่ลูกศรสีเขียวเพื่อไปยังแผนที่ที่อยู่ติดกัน.


METAR-TAF: